CDT,Max TemperatureF,Mean TemperatureF,Min TemperatureF,Max Dew PointF,MeanDew PointF,Min DewpointF,Max Humidity, Mean Humidity, Min Humidity, Max Sea Level PressureIn, Mean Sea Level PressureIn, Min Sea Level PressureIn, Max VisibilityMiles, Mean VisibilityMiles, Min VisibilityMiles, Max Wind SpeedMPH, Mean Wind SpeedMPH, Max Gust SpeedMPH,PrecipitationIn, CloudCover, Events, WindDirDegrees
2013-4-1,51,44,36,43,30,23,80,57,34,30.20,30.10,29.90,10,10,10,16,10,28,0.00,1,,322
2013-4-2,49,39,29,32,24,14,86,58,27,30.34,30.28,30.20,10,10,10,10,5,,0.00,0,,323
2013-4-3,53,41,29,31,26,20,93,57,29,30.38,30.31,30.25,10,10,10,17,5,18,0.00,0,,55
2013-4-4,61,48,36,39,28,23,85,49,25,30.25,30.10,30.02,10,10,7,12,6,,0.00,0,,56
2013-4-5,66,50,35,40,35,31,91,59,28,30.13,30.09,30.03,10,10,7,14,5,18,0.00,0,,331
2013-4-6,74,58,43,43,39,35,85,50,26,30.09,29.99,29.85,10,10,7,24,8,32,0.00,0,,168
2013-4-7,76,66,57,57,51,39,87,57,39,29.96,29.92,29.86,10,10,7,18,12,24,0.00,2,,200
2013-4-8,75,65,55,59,56,52,87,70,53,29.95,29.89,29.85,10,10,10,25,10,32,0.00,4,,174
2013-4-9,81,70,59,63,60,55,84,69,49,30.00,29.94,29.89,10,10,10,24,10,30,0.00,3,,162
2013-4-10,83,72,63,67,64,60,91,72,55,29.92,29.82,29.69,10,10,7,29,11,37,0.01,2,Rain-Thunderstorm,174
2013-4-11,67,56,43,64,54,36,95,89,74,29.78,29.68,29.62,10,8,1,21,12,32,0.66,6,Rain-Thunderstorm,254
2013-4-12,55,46,36,37,35,33,91,68,47,30.03,29.86,29.74,10,10,10,22,11,29,0.00,2,,261
2013-4-13,62,48,34,46,37,33,94,67,39,30.08,30.03,29.97,10,10,10,15,6,21,0.00,0,,239
2013-4-14,76,60,45,50,46,41,87,60,31,29.97,29.86,29.76,10,10,7,25,10,33,0.00,0,,141
2013-4-15,77,64,52,62,56,50,91,75,52,29.97,29.88,29.82,10,10,10,20,11,22,0.00,4,,149
2013-4-16,76,66,56,68,58,52,93,84,71,30.11,30.03,29.88,10,9,4,20,6,33,0.00,5,Thunderstorm,37
2013-4-17,84,68,54,71,62,54,96,79,60,30.11,30.00,29.82,10,7,1,18,7,24,0.00,3,Thunderstorm,158
2013-4-18,79,62,46,66,63,45,94,77,59,29.81,29.72,29.63,10,9,3,29,16,36,1.38,4,Rain-Thunderstorm,197
2013-4-19,50,44,40,44,34,30,93,67,51,30.08,29.90,29.69,10,10,5,23,15,31,0.05,6,Rain,256
2013-4-20,56,46,35,39,33,28,87,64,34,30.37,30.24,30.08,10,10,7,13,6,20,0.00,0,,324
2013-4-21,63,50,38,45,37,33,84,59,34,30.46,30.37,30.30,10,10,10,12,7,,0.00,0,,62
2013-4-22,72,56,41,51,44,36,89,64,37,30.30,30.18,30.05,10,10,7,13,5,18,0.00,0,,128
2013-4-23,71,60,48,60,54,47,92,79,65,30.07,29.96,29.82,10,10,5,23,8,31,0.11,4,Rain-Thunderstorm,171
2013-4-24,51,46,40,47,40,35,95,81,56,30.28,30.10,29.92,10,9,2,20,12,29,0.24,6,Rain-Thunderstorm,296
2013-4-25,62,48,35,45,39,34,96,71,41,30.37,30.32,30.27,10,10,7,15,6,29,0.00,0,,242
2013-4-26,63,52,43,50,44,39,92,72,51,30.44,30.36,30.29,10,10,7,13,5,,0.00,3,Rain,145
2013-4-27,59,55,51,57,53,48,94,89,82,30.33,30.12,29.91,10,8,2,16,6,18,0.02,8,Rain,106
2013-4-28,59,57,54,57,55,52,96,91,83,29.96,29.91,29.85,10,6,1,13,7,17,0.03,8,Rain,236
2013-4-29,73,60,48,58,54,48,98,79,54,30.00,29.94,29.89,10,7,0,13,5,18,0.00,1,Fog,164
2013-4-30,82,66,52,61,56,51,94,70,42,30.00,29.95,29.90,10,10,4,15,7,18,0.00,0,,149